Date,TemperatureHighF,TemperatureAvgF,TemperatureLowF,DewpointHighF,DewpointAvgF,DewpointLowF,HumidityHigh,HumidityAvg,HumidityLow,PressureMaxIn,PressureMinIn,WindSpeedMaxMPH,WindSpeedAvgMPH,GustSpeedMaxMPH,PrecipitationSumIn
2013-3-1,38.0,33.1,31.0,33.0,30.5,28.0,96,90,81,0.00,40.00,12,7,17,0.07
2013-3-2,32.0,30.1,29.0,28.0,23.5,16.0,92,77,55,0.00,40.00,13,9,22,0.03
2013-3-3,41.0,32.1,21.0,22.0,18.0,13.0,88,58,32,0.00,40.00,8,3,13,0.03
2013-3-4,55.0,44.6,35.0,36.0,24.8,20.0,64,47,33,0.00,40.00,8,4,19,0.01
2013-3-5,48.0,38.1,32.0,41.0,32.1,19.0,97,80,56,0.00,40.00,17,10,31,0.10
2013-3-6,41.0,34.9,32.0,26.0,23.7,21.0,73,64,54,0.00,40.00,19,11,30,0.02
2013-3-7,49.0,36.0,25.0,27.0,25.0,22.0,89,66,41,0.00,40.00,4,3,10,0.00
2013-3-8,56.0,40.9,27.0,29.0,26.0,24.0,92,60,30,0.00,40.00,7,3,17,0.00
2013-3-9,67.0,52.6,42.0,34.0,29.9,25.0,60,43,28,0.00,40.00,7,5,17,0.00
2013-3-10,66.0,57.1,50.0,54.0,44.1,32.0,99,66,37,0.00,40.00,11,6,28,0.37
2013-3-11,51.0,41.9,37.0,51.0,36.2,27.0,99,81,67,0.00,40.00,11,7,19,0.32
2013-3-12,52.0,40.8,29.0,27.0,23.6,20.0,82,54,29,0.00,40.00,13,6,25,0.01
2013-3-13,41.0,35.5,28.0,25.0,18.1,15.0,66,50,38,0.00,40.00,15,10,26,0.00
2013-3-14,44.0,32.4,20.0,31.0,22.8,17.0,90,70,40,0.00,40.00,7,2,17,0.00
2013-3-15,71.0,52.1,30.0,50.0,38.5,27.0,90,63,41,0.00,40.00,8,3,19,0.00
2013-3-16,66.0,56.0,41.0,49.0,43.8,35.0,80,64,51,0.00,40.00,12,8,21,0.00
2013-3-17,41.0,38.4,36.0,40.0,37.0,34.0,97,94,80,0.00,40.00,8,5,17,1.37
2013-3-18,49.0,43.1,35.0,44.0,39.9,34.0,99,89,70,0.00,40.00,13,6,21,1.23
2013-3-19,51.0,41.1,31.0,35.0,19.8,12.0,97,47,21,0.00,40.00,13,6,22,0.01
2013-3-20,41.0,33.4,26.0,29.0,20.3,12.0,89,60,41,0.00,40.00,15,7,26,0.00
2013-3-21,43.0,30.4,19.0,17.0,13.7,11.0,80,52,29,0.00,40.00,8,3,14,0.00
2013-3-22,42.0,36.4,32.0,22.0,18.6,16.0,56,48,39,0.00,40.00,4,3,9,0.00
2013-3-23,56.0,45.7,38.0,42.0,28.2,22.0,91,51,38,0.00,40.00,6,4,15,0.07
2013-3-24,44.0,38.2,32.0,43.0,35.9,28.0,96,91,79,0.00,40.00,15,8,32,0.42
2013-3-25,36.0,32.5,30.0,32.0,28.7,26.0,97,86,70,0.00,40.00,14,10,27,0.10
2013-3-26,42.0,35.0,29.0,29.0,25.2,22.0,84,68,51,0.00,40.00,10,7,17,0.01
2013-3-27,50.0,34.5,22.0,30.0,23.7,20.0,92,69,37,0.00,40.00,7,2,14,0.00
2013-3-28,60.0,54.8,48.0,33.0,31.7,30.0,54,42,34,0.00,40.00,4,2,10,0.00
2013-3-29,52.0,47.1,43.0,48.0,42.4,32.0,97,84,53,0.00,40.00,4,2,9,0.10
2013-3-30,55.0,46.5,38.0,48.0,41.9,-99.9,100,91,67,0.00,40.00,6,2,10,0.35
2013-3-31,65.0,54.7,48.0,50.0,48.4,46.0,100,81,54,0.00,40.00,8,3,14,0.33